sensor_id;sensor_type;location;lat;lon;timestamp;P1;durP1;ratioP1;P2;durP2;ratioP2
39102;SDS011;24847;48.218;16.414;2022-09-27T00:02:28;2.30;;;2.10;;
39102;SDS011;24847;48.218;16.414;2022-09-27T00:07:31;3.63;;;2.15;;
39102;SDS011;24847;48.218;16.414;2022-09-27T00:12:33;2.20;;;2.00;;
39102;SDS011;24847;48.218;16.414;2022-09-27T00:17:36;2.22;;;2.03;;
39102;SDS011;24847;48.218;16.414;2022-09-27T00:22:40;2.53;;;2.13;;
39102;SDS011;24847;48.218;16.414;2022-09-27T00:27:42;2.97;;;2.05;;
39102;SDS011;24847;48.218;16.414;2022-09-27T00:32:45;2.30;;;1.95;;
39102;SDS011;24847;48.218;16.414;2022-09-27T00:37:49;2.70;;;2.20;;
39102;SDS011;24847;48.218;16.414;2022-09-27T00:42:51;2.30;;;1.95;;
39102;SDS011;24847;48.218;16.414;2022-09-27T00:47:53;3.15;;;2.20;;
39102;SDS011;24847;48.218;16.414;2022-09-27T00:53:06;2.08;;;1.88;;
39102;SDS011;24847;48.218;16.414;2022-09-27T00:58:13;2.20;;;2.00;;
39102;SDS011;24847;48.218;16.414;2022-09-27T01:03:20;2.38;;;2.17;;
39102;SDS011;24847;48.218;16.414;2022-09-27T01:08:31;2.22;;;2.03;;
39102;SDS011;24847;48.218;16.414;2022-09-27T01:13:36;2.63;;;2.15;;
39102;SDS011;24847;48.218;16.414;2022-09-27T01:18:51;2.40;;;1.85;;
39102;SDS011;24847;48.218;16.414;2022-09-27T01:29:54;1.90;;;1.75;;
39102;SDS011;24847;48.218;16.414;2022-09-27T01:35:24;2.00;;;1.80;;
39102;SDS011;24847;48.218;16.414;2022-09-27T01:40:38;2.08;;;1.92;;
39102;SDS011;24847;48.218;16.414;2022-09-27T01:45:49;2.22;;;1.95;;
39102;SDS011;24847;48.218;16.414;2022-09-27T01:50:57;2.53;;;1.80;;
39102;SDS011;24847;48.218;16.414;2022-09-27T01:56:05;1.83;;;1.63;;
39102;SDS011;24847;48.218;16.414;2022-09-27T02:01:12;2.28;;;1.75;;
39102;SDS011;24847;48.218;16.414;2022-09-27T02:06:18;2.83;;;1.83;;
39102;SDS011;24847;48.218;16.414;2022-09-27T02:11:23;2.30;;;2.10;;
39102;SDS011;24847;48.218;16.414;2022-09-27T02:16:30;2.10;;;1.90;;
39102;SDS011;24847;48.218;16.414;2022-09-27T02:21:47;2.10;;;1.85;;
39102;SDS011;24847;48.218;16.414;2022-09-27T02:26:58;2.30;;;2.10;;
39102;SDS011;24847;48.218;16.414;2022-09-27T02:32:08;1.95;;;1.80;;
39102;SDS011;24847;48.218;16.414;2022-09-27T02:37:10;1.85;;;1.75;;
39102;SDS011;24847;48.218;16.414;2022-09-27T02:42:12;2.20;;;1.83;;
39102;SDS011;24847;48.218;16.414;2022-09-27T02:47:23;2.42;;;2.17;;
39102;SDS011;24847;48.218;16.414;2022-09-27T02:52:42;2.40;;;1.83;;
39102;SDS011;24847;48.218;16.414;2022-09-27T02:57:56;1.83;;;1.73;;
39102;SDS011;24847;48.218;16.414;2022-09-27T03:03:12;2.50;;;1.73;;
39102;SDS011;24847;48.218;16.414;2022-09-27T03:08:19;1.92;;;1.73;;
39102;SDS011;24847;48.218;16.414;2022-09-27T03:13:21;2.15;;;1.77;;
39102;SDS011;24847;48.218;16.414;2022-09-27T03:18:25;2.42;;;1.75;;
39102;SDS011;24847;48.218;16.414;2022-09-27T03:23:27;9.35;;;7.88;;
39102;SDS011;24847;48.218;16.414;2022-09-27T03:28:29;4.97;;;3.83;;
39102;SDS011;24847;48.218;16.414;2022-09-27T03:33:32;3.38;;;2.40;;
39102;SDS011;24847;48.218;16.414;2022-09-27T03:38:34;2.53;;;2.15;;
39102;SDS011;24847;48.218;16.414;2022-09-27T03:43:36;2.33;;;2.13;;
39102;SDS011;24847;48.218;16.414;2022-09-27T03:48:40;3.58;;;2.38;;
39102;SDS011;24847;48.218;16.414;2022-09-27T03:53:42;2.38;;;2.05;;
39102;SDS011;24847;48.218;16.414;2022-09-27T03:58:44;2.65;;;2.38;;
39102;SDS011;24847;48.218;16.414;2022-09-27T04:03:49;2.13;;;1.92;;
39102;SDS011;24847;48.218;16.414;2022-09-27T04:08:51;2.10;;;1.90;;
39102;SDS011;24847;48.218;16.414;2022-09-27T04:13:53;2.70;;;2.25;;
39102;SDS011;24847;48.218;16.414;2022-09-27T04:18:58;3.15;;;2.00;;
39102;SDS011;24847;48.218;16.414;2022-09-27T04:24:01;2.30;;;1.95;;
39102;SDS011;24847;48.218;16.414;2022-09-27T04:29:04;2.70;;;2.50;;
39102;SDS011;24847;48.218;16.414;2022-09-27T04:34:10;3.40;;;2.25;;
39102;SDS011;24847;48.218;16.414;2022-09-27T04:39:12;5.32;;;2.70;;
39102;SDS011;24847;48.218;16.414;2022-09-27T04:44:14;2.80;;;2.20;;
39102;SDS011;24847;48.218;16.414;2022-09-27T04:49:17;4.07;;;2.53;;
39102;SDS011;24847;48.218;16.414;2022-09-27T04:54:20;2.65;;;2.05;;
39102;SDS011;24847;48.218;16.414;2022-09-27T04:59:22;3.00;;;2.15;;
39102;SDS011;24847;48.218;16.414;2022-09-27T05:04:26;7.30;;;2.33;;
39102;SDS011;24847;48.218;16.414;2022-09-27T05:09:29;3.10;;;2.20;;
39102;SDS011;24847;48.218;16.414;2022-09-27T05:14:31;4.10;;;2.30;;
39102;SDS011;24847;48.218;16.414;2022-09-27T05:19:34;3.90;;;2.50;;
39102;SDS011;24847;48.218;16.414;2022-09-27T05:24:38;5.72;;;2.40;;
39102;SDS011;24847;48.218;16.414;2022-09-27T05:29:40;3.60;;;2.42;;
39102;SDS011;24847;48.218;16.414;2022-09-27T05:34:44;4.00;;;2.72;;
39102;SDS011;24847;48.218;16.414;2022-09-27T05:39:46;7.00;;;2.53;;
39102;SDS011;24847;48.218;16.414;2022-09-27T05:44:49;4.80;;;2.63;;
39102;SDS011;24847;48.218;16.414;2022-09-27T05:49:53;5.22;;;2.30;;
39102;SDS011;24847;48.218;16.414;2022-09-27T05:54:55;2.78;;;2.50;;
39102;SDS011;24847;48.218;16.414;2022-09-27T05:59:58;4.32;;;2.58;;
39102;SDS011;24847;48.218;16.414;2022-09-27T06:05:01;6.32;;;2.42;;
39102;SDS011;24847;48.218;16.414;2022-09-27T06:10:04;4.95;;;2.85;;
39102;SDS011;24847;48.218;16.414;2022-09-27T06:15:07;8.52;;;3.75;;
39102;SDS011;24847;48.218;16.414;2022-09-27T06:20:12;5.35;;;3.53;;
39102;SDS011;24847;48.218;16.414;2022-09-27T06:25:14;6.40;;;3.30;;
39102;SDS011;24847;48.218;16.414;2022-09-27T06:30:16;8.18;;;3.70;;
39102;SDS011;24847;48.218;16.414;2022-09-27T06:35:20;6.38;;;3.75;;
39102;SDS011;24847;48.218;16.414;2022-09-27T06:40:24;5.50;;;3.90;;
39102;SDS011;24847;48.218;16.414;2022-09-27T06:45:26;5.95;;;3.92;;
39102;SDS011;24847;48.218;16.414;2022-09-27T06:50:29;4.15;;;3.75;;
39102;SDS011;24847;48.218;16.414;2022-09-27T06:55:34;4.00;;;3.60;;
39102;SDS011;24847;48.218;16.414;2022-09-27T07:00:37;4.95;;;3.55;;
39102;SDS011;24847;48.218;16.414;2022-09-27T07:05:40;5.63;;;4.13;;
39102;SDS011;24847;48.218;16.414;2022-09-27T07:10:43;4.18;;;3.78;;
39102;SDS011;24847;48.218;16.414;2022-09-27T07:15:45;4.15;;;3.75;;
39102;SDS011;24847;48.218;16.414;2022-09-27T07:20:49;4.43;;;4.03;;
39102;SDS011;24847;48.218;16.414;2022-09-27T07:25:51;5.88;;;4.30;;
39102;SDS011;24847;48.218;16.414;2022-09-27T07:30:53;5.43;;;4.60;;
39102;SDS011;24847;48.218;16.414;2022-09-27T07:35:57;5.28;;;4.07;;
39102;SDS011;24847;48.218;16.414;2022-09-27T07:41:04;4.70;;;4.30;;
39102;SDS011;24847;48.218;16.414;2022-09-27T07:46:07;4.20;;;3.80;;
39102;SDS011;24847;48.218;16.414;2022-09-27T07:51:11;4.47;;;4.07;;
39102;SDS011;24847;48.218;16.414;2022-09-27T07:56:13;3.15;;;2.83;;
39102;SDS011;24847;48.218;16.414;2022-09-27T08:01:15;3.67;;;3.33;;
39102;SDS011;24847;48.218;16.414;2022-09-27T08:06:19;5.70;;;4.55;;
39102;SDS011;24847;48.218;16.414;2022-09-27T08:11:21;5.60;;;4.95;;
39102;SDS011;24847;48.218;16.414;2022-09-27T08:16:23;6.97;;;5.05;;
39102;SDS011;24847;48.218;16.414;2022-09-27T08:21:27;6.82;;;4.95;;
39102;SDS011;24847;48.218;16.414;2022-09-27T08:26:30;5.75;;;4.43;;
39102;SDS011;24847;48.218;16.414;2022-09-27T08:31:32;5.70;;;3.92;;
39102;SDS011;24847;48.218;16.414;2022-09-27T08:36:36;5.03;;;3.55;;
39102;SDS011;24847;48.218;16.414;2022-09-27T08:41:39;3.30;;;2.85;;
39102;SDS011;24847;48.218;16.414;2022-09-27T08:46:52;2.70;;;2.28;;
39102;SDS011;24847;48.218;16.414;2022-09-27T08:52:04;2.38;;;2.05;;
39102;SDS011;24847;48.218;16.414;2022-09-27T08:57:15;2.33;;;1.80;;
39102;SDS011;24847;48.218;16.414;2022-09-27T09:02:18;2.72;;;1.80;;
39102;SDS011;24847;48.218;16.414;2022-09-27T09:07:32;2.15;;;1.70;;
39102;SDS011;24847;48.218;16.414;2022-09-27T09:12:51;2.05;;;1.55;;
39102;SDS011;24847;48.218;16.414;2022-09-27T09:18:08;1.80;;;1.52;;
39102;SDS011;24847;48.218;16.414;2022-09-27T09:23:32;1.77;;;1.48;;
39102;SDS011;24847;48.218;16.414;2022-09-27T09:29:03;2.00;;;1.45;;
39102;SDS011;24847;48.218;16.414;2022-09-27T09:34:19;1.60;;;1.30;;
39102;SDS011;24847;48.218;16.414;2022-09-27T09:39:27;1.27;;;1.17;;
39102;SDS011;24847;48.218;16.414;2022-09-27T09:44:38;1.70;;;1.33;;
39102;SDS011;24847;48.218;16.414;2022-09-27T09:49:50;1.73;;;1.27;;
39102;SDS011;24847;48.218;16.414;2022-09-27T09:54:59;1.90;;;1.30;;
39102;SDS011;24847;48.218;16.414;2022-09-27T10:00:11;3.78;;;1.25;;
39102;SDS011;24847;48.218;16.414;2022-09-27T10:05:15;1.50;;;1.15;;
39102;SDS011;24847;48.218;16.414;2022-09-27T10:10:22;1.92;;;1.30;;
39102;SDS011;24847;48.218;16.414;2022-09-27T10:15:25;2.33;;;1.23;;
39102;SDS011;24847;48.218;16.414;2022-09-27T10:20:32;1.33;;;0.95;;
39102;SDS011;24847;48.218;16.414;2022-09-27T10:31:01;1.73;;;1.02;;
39102;SDS011;24847;48.218;16.414;2022-09-27T10:36:06;2.17;;;1.35;;
39102;SDS011;24847;48.218;16.414;2022-09-27T10:41:30;2.13;;;1.40;;
39102;SDS011;24847;48.218;16.414;2022-09-27T10:46:34;2.10;;;1.40;;
39102;SDS011;24847;48.218;16.414;2022-09-27T10:51:36;1.45;;;1.35;;
39102;SDS011;24847;48.218;16.414;2022-09-27T10:56:40;1.10;;;0.98;;
39102;SDS011;24847;48.218;16.414;2022-09-27T11:01:43;3.38;;;1.38;;
39102;SDS011;24847;48.218;16.414;2022-09-27T11:06:49;1.58;;;1.20;;
39102;SDS011;24847;48.218;16.414;2022-09-27T11:12:06;1.33;;;1.20;;
39102;SDS011;24847;48.218;16.414;2022-09-27T11:17:12;0.95;;;0.85;;
39102;SDS011;24847;48.218;16.414;2022-09-27T11:22:22;0.97;;;0.87;;
39102;SDS011;24847;48.218;16.414;2022-09-27T11:27:58;0.80;;;0.80;;
39102;SDS011;24847;48.218;16.414;2022-09-27T11:33:16;1.15;;;0.90;;
39102;SDS011;24847;48.218;16.414;2022-09-27T11:38:47;1.10;;;0.80;;
39102;SDS011;24847;48.218;16.414;2022-09-27T11:44:08;0.85;;;0.80;;
39102;SDS011;24847;48.218;16.414;2022-09-27T11:55:29;1.67;;;1.15;;
39102;SDS011;24847;48.218;16.414;2022-09-27T12:00:47;0.95;;;0.80;;
39102;SDS011;24847;48.218;16.414;2022-09-27T12:06:05;1.00;;;0.70;;
39102;SDS011;24847;48.218;16.414;2022-09-27T12:11:14;1.40;;;0.70;;
39102;SDS011;24847;48.218;16.414;2022-09-27T12:16:23;1.08;;;0.90;;
39102;SDS011;24847;48.218;16.414;2022-09-27T12:21:29;1.30;;;0.85;;
39102;SDS011;24847;48.218;16.414;2022-09-27T12:26:33;1.75;;;0.80;;
39102;SDS011;24847;48.218;16.414;2022-09-27T12:31:42;0.90;;;0.60;;
39102;SDS011;24847;48.218;16.414;2022-09-27T12:36:52;0.90;;;0.70;;
39102;SDS011;24847;48.218;16.414;2022-09-27T12:42:00;1.33;;;1.05;;
39102;SDS011;24847;48.218;16.414;2022-09-27T12:47:14;2.05;;;1.00;;
39102;SDS011;24847;48.218;16.414;2022-09-27T12:52:40;1.65;;;0.60;;
39102;SDS011;24847;48.218;16.414;2022-09-27T12:57:48;0.95;;;0.80;;
39102;SDS011;24847;48.218;16.414;2022-09-27T13:03:13;2.50;;;1.45;;
39102;SDS011;24847;48.218;16.414;2022-09-27T13:08:35;1.08;;;0.73;;
39102;SDS011;24847;48.218;16.414;2022-09-27T13:13:54;1.95;;;0.98;;
39102;SDS011;24847;48.218;16.414;2022-09-27T13:18:59;3.75;;;0.82;;
39102;SDS011;24847;48.218;16.414;2022-09-27T13:24:16;1.60;;;0.70;;
39102;SDS011;24847;48.218;16.414;2022-09-27T13:29:49;2.60;;;0.88;;
39102;SDS011;24847;48.218;16.414;2022-09-27T13:34:53;2.08;;;0.73;;
39102;SDS011;24847;48.218;16.414;2022-09-27T13:40:08;2.10;;;0.90;;
39102;SDS011;24847;48.218;16.414;2022-09-27T13:45:28;1.10;;;0.85;;
39102;SDS011;24847;48.218;16.414;2022-09-27T13:50:37;1.00;;;0.75;;
39102;SDS011;24847;48.218;16.414;2022-09-27T13:55:47;3.65;;;1.52;;
39102;SDS011;24847;48.218;16.414;2022-09-27T14:00:52;1.45;;;0.90;;
39102;SDS011;24847;48.218;16.414;2022-09-27T14:06:00;1.75;;;1.20;;
39102;SDS011;24847;48.218;16.414;2022-09-27T14:11:09;1.63;;;1.00;;
39102;SDS011;24847;48.218;16.414;2022-09-27T14:16:15;1.50;;;1.00;;
39102;SDS011;24847;48.218;16.414;2022-09-27T14:21:24;1.20;;;0.75;;
39102;SDS011;24847;48.218;16.414;2022-09-27T14:26:30;1.60;;;0.73;;
39102;SDS011;24847;48.218;16.414;2022-09-27T14:31:32;2.47;;;1.38;;
39102;SDS011;24847;48.218;16.414;2022-09-27T14:36:36;1.65;;;0.50;;
39102;SDS011;24847;48.218;16.414;2022-09-27T14:41:56;0.73;;;0.40;;
39102;SDS011;24847;48.218;16.414;2022-09-27T14:47:06;2.05;;;0.80;;
39102;SDS011;24847;48.218;16.414;2022-09-27T14:52:14;1.25;;;0.60;;
39102;SDS011;24847;48.218;16.414;2022-09-27T14:57:19;0.95;;;0.57;;
39102;SDS011;24847;48.218;16.414;2022-09-27T15:02:22;0.82;;;0.40;;
39102;SDS011;24847;48.218;16.414;2022-09-27T15:07:28;1.30;;;0.50;;
39102;SDS011;24847;48.218;16.414;2022-09-27T15:12:32;0.55;;;0.40;;
39102;SDS011;24847;48.218;16.414;2022-09-27T15:17:40;1.45;;;0.60;;
39102;SDS011;24847;48.218;16.414;2022-09-27T15:22:44;2.92;;;1.20;;
39102;SDS011;24847;48.218;16.414;2022-09-27T15:27:48;2.75;;;1.00;;
39102;SDS011;24847;48.218;16.414;2022-09-27T15:32:53;2.45;;;0.80;;
39102;SDS011;24847;48.218;16.414;2022-09-27T15:38:10;1.00;;;0.68;;
39102;SDS011;24847;48.218;16.414;2022-09-27T15:43:28;2.90;;;2.08;;
39102;SDS011;24847;48.218;16.414;2022-09-27T15:48:33;1.80;;;1.20;;
39102;SDS011;24847;48.218;16.414;2022-09-27T15:53:42;1.05;;;0.70;;
39102;SDS011;24847;48.218;16.414;2022-09-27T15:58:45;1.42;;;0.90;;
39102;SDS011;24847;48.218;16.414;2022-09-27T16:03:47;1.55;;;0.70;;
39102;SDS011;24847;48.218;16.414;2022-09-27T16:08:51;0.60;;;0.50;;
39102;SDS011;24847;48.218;16.414;2022-09-27T16:13:53;0.88;;;0.55;;
39102;SDS011;24847;48.218;16.414;2022-09-27T16:18:55;1.40;;;0.60;;
39102;SDS011;24847;48.218;16.414;2022-09-27T16:23:59;0.65;;;0.32;;
39102;SDS011;24847;48.218;16.414;2022-09-27T16:29:02;1.02;;;0.50;;
39102;SDS011;24847;48.218;16.414;2022-09-27T16:34:05;1.10;;;0.50;;
39102;SDS011;24847;48.218;16.414;2022-09-27T16:39:11;1.13;;;0.50;;
39102;SDS011;24847;48.218;16.414;2022-09-27T16:44:14;0.90;;;0.57;;
39102;SDS011;24847;48.218;16.414;2022-09-27T16:49:16;1.58;;;0.55;;
39102;SDS011;24847;48.218;16.414;2022-09-27T16:54:37;1.77;;;0.50;;
39102;SDS011;24847;48.218;16.414;2022-09-27T16:59:40;0.80;;;0.60;;
39102;SDS011;24847;48.218;16.414;2022-09-27T17:04:42;0.95;;;0.65;;
39102;SDS011;24847;48.218;16.414;2022-09-27T17:09:46;0.98;;;0.60;;
39102;SDS011;24847;48.218;16.414;2022-09-27T17:14:48;0.93;;;0.60;;
39102;SDS011;24847;48.218;16.414;2022-09-27T17:19:50;1.25;;;0.70;;
39102;SDS011;24847;48.218;16.414;2022-09-27T17:24:54;1.70;;;0.98;;
39102;SDS011;24847;48.218;16.414;2022-09-27T17:29:56;0.95;;;0.70;;
39102;SDS011;24847;48.218;16.414;2022-09-27T17:34:58;0.82;;;0.50;;
39102;SDS011;24847;48.218;16.414;2022-09-27T17:40:02;0.98;;;0.52;;
39102;SDS011;24847;48.218;16.414;2022-09-27T17:45:06;1.17;;;0.55;;
39102;SDS011;24847;48.218;16.414;2022-09-27T17:50:09;0.68;;;0.40;;
39102;SDS011;24847;48.218;16.414;2022-09-27T17:55:29;3.30;;;1.15;;
39102;SDS011;24847;48.218;16.414;2022-09-27T18:00:31;6.10;;;3.70;;
39102;SDS011;24847;48.218;16.414;2022-09-27T18:05:34;2.00;;;1.13;;
39102;SDS011;24847;48.218;16.414;2022-09-27T18:10:38;1.35;;;0.70;;
39102;SDS011;24847;48.218;16.414;2022-09-27T18:15:41;1.25;;;0.73;;
39102;SDS011;24847;48.218;16.414;2022-09-27T18:20:43;0.82;;;0.47;;
39102;SDS011;24847;48.218;16.414;2022-09-27T18:25:53;1.75;;;0.40;;
39102;SDS011;24847;48.218;16.414;2022-09-27T18:31:00;0.80;;;0.57;;
39102;SDS011;24847;48.218;16.414;2022-09-27T18:36:05;0.60;;;0.50;;
39102;SDS011;24847;48.218;16.414;2022-09-27T18:41:12;1.70;;;0.40;;
39102;SDS011;24847;48.218;16.414;2022-09-27T18:46:16;0.60;;;0.40;;
39102;SDS011;24847;48.218;16.414;2022-09-27T18:51:21;0.52;;;0.40;;
39102;SDS011;24847;48.218;16.414;2022-09-27T18:56:27;0.80;;;0.50;;
39102;SDS011;24847;48.218;16.414;2022-09-27T19:01:30;0.98;;;0.63;;
39102;SDS011;24847;48.218;16.414;2022-09-27T19:06:34;0.60;;;0.50;;
39102;SDS011;24847;48.218;16.414;2022-09-27T19:11:39;0.82;;;0.52;;
39102;SDS011;24847;48.218;16.414;2022-09-27T19:16:42;0.80;;;0.60;;
39102;SDS011;24847;48.218;16.414;2022-09-27T19:21:46;1.27;;;0.63;;
39102;SDS011;24847;48.218;16.414;2022-09-27T19:26:50;0.80;;;0.60;;
39102;SDS011;24847;48.218;16.414;2022-09-27T19:31:55;0.50;;;0.40;;
39102;SDS011;24847;48.218;16.414;2022-09-27T19:36:57;1.08;;;0.50;;
39102;SDS011;24847;48.218;16.414;2022-09-27T19:42:00;0.55;;;0.40;;
39102;SDS011;24847;48.218;16.414;2022-09-27T19:47:02;0.90;;;0.60;;
39102;SDS011;24847;48.218;16.414;2022-09-27T19:52:05;0.85;;;0.57;;
39102;SDS011;24847;48.218;16.414;2022-09-27T19:57:08;1.10;;;0.68;;
39102;SDS011;24847;48.218;16.414;2022-09-27T20:02:10;0.90;;;0.52;;
39102;SDS011;24847;48.218;16.414;2022-09-27T20:07:13;1.17;;;0.60;;
39102;SDS011;24847;48.218;16.414;2022-09-27T20:12:16;0.50;;;0.40;;
39102;SDS011;24847;48.218;16.414;2022-09-27T20:17:19;0.65;;;0.30;;
39102;SDS011;24847;48.218;16.414;2022-09-27T20:22:21;0.60;;;0.47;;
39102;SDS011;24847;48.218;16.414;2022-09-27T20:27:25;1.85;;;0.70;;
39102;SDS011;24847;48.218;16.414;2022-09-27T20:32:28;2.22;;;0.45;;
39102;SDS011;24847;48.218;16.414;2022-09-27T20:37:31;0.63;;;0.45;;
39102;SDS011;24847;48.218;16.414;2022-09-27T20:42:34;0.73;;;0.50;;
39102;SDS011;24847;48.218;16.414;2022-09-27T20:47:36;1.13;;;0.50;;
39102;SDS011;24847;48.218;16.414;2022-09-27T20:52:42;1.42;;;0.70;;
39102;SDS011;24847;48.218;16.414;2022-09-27T20:57:48;1.77;;;0.85;;
39102;SDS011;24847;48.218;16.414;2022-09-27T21:02:50;1.23;;;0.98;;
39102;SDS011;24847;48.218;16.414;2022-09-27T21:07:53;1.17;;;0.80;;
39102;SDS011;24847;48.218;16.414;2022-09-27T21:12:58;0.93;;;0.60;;
39102;SDS011;24847;48.218;16.414;2022-09-27T21:18:00;0.70;;;0.40;;
39102;SDS011;24847;48.218;16.414;2022-09-27T21:23:03;0.68;;;0.40;;
39102;SDS011;24847;48.218;16.414;2022-09-27T21:28:07;0.77;;;0.50;;
39102;SDS011;24847;48.218;16.414;2022-09-27T21:33:09;0.47;;;0.35;;
39102;SDS011;24847;48.218;16.414;2022-09-27T21:38:12;2.17;;;0.55;;
39102;SDS011;24847;48.218;16.414;2022-09-27T21:43:15;0.90;;;0.50;;
39102;SDS011;24847;48.218;16.414;2022-09-27T21:48:17;1.88;;;0.47;;
39102;SDS011;24847;48.218;16.414;2022-09-27T21:53:19;0.70;;;0.45;;
39102;SDS011;24847;48.218;16.414;2022-09-27T21:58:23;1.15;;;0.57;;
39102;SDS011;24847;48.218;16.414;2022-09-27T22:03:25;0.70;;;0.40;;
39102;SDS011;24847;48.218;16.414;2022-09-27T22:08:27;0.40;;;0.30;;
39102;SDS011;24847;48.218;16.414;2022-09-27T22:13:31;0.50;;;0.40;;
39102;SDS011;24847;48.218;16.414;2022-09-27T22:18:34;1.10;;;0.40;;
39102;SDS011;24847;48.218;16.414;2022-09-27T22:23:37;0.40;;;0.30;;
39102;SDS011;24847;48.218;16.414;2022-09-27T22:28:41;0.63;;;0.40;;
39102;SDS011;24847;48.218;16.414;2022-09-27T22:33:46;0.43;;;0.20;;
39102;SDS011;24847;48.218;16.414;2022-09-27T22:38:50;0.73;;;0.30;;
39102;SDS011;24847;48.218;16.414;2022-09-27T22:43:54;1.00;;;0.30;;
39102;SDS011;24847;48.218;16.414;2022-09-27T22:48:56;0.60;;;0.20;;
39102;SDS011;24847;48.218;16.414;2022-09-27T22:53:58;0.40;;;0.30;;
39102;SDS011;24847;48.218;16.414;2022-09-27T22:59:02;0.80;;;0.30;;
39102;SDS011;24847;48.218;16.414;2022-09-27T23:04:04;0.47;;;0.30;;
39102;SDS011;24847;48.218;16.414;2022-09-27T23:09:07;0.38;;;0.30;;
39102;SDS011;24847;48.218;16.414;2022-09-27T23:14:11;0.80;;;0.20;;
39102;SDS011;24847;48.218;16.414;2022-09-27T23:19:14;0.52;;;0.20;;
39102;SDS011;24847;48.218;16.414;2022-09-27T23:24:19;0.43;;;0.20;;
39102;SDS011;24847;48.218;16.414;2022-09-27T23:29:23;0.57;;;0.30;;
39102;SDS011;24847;48.218;16.414;2022-09-27T23:34:26;0.38;;;0.20;;
39102;SDS011;24847;48.218;16.414;2022-09-27T23:39:28;0.25;;;0.20;;
39102;SDS011;24847;48.218;16.414;2022-09-27T23:44:31;0.47;;;0.20;;
39102;SDS011;24847;48.218;16.414;2022-09-27T23:49:33;0.50;;;0.20;;
39102;SDS011;24847;48.218;16.414;2022-09-27T23:54:36;0.30;;;0.10;;
39102;SDS011;24847;48.218;16.414;2022-09-27T23:59:39;1.27;;;0.38;;
